createdAt,value
2017-04-14T00:00:22.099Z,72.40
2017-04-14T00:01:21.914Z,72.40
2017-04-14T00:02:21.694Z,72.40
2017-04-14T00:03:21.494Z,72.60
2017-04-14T00:04:21.290Z,72.80
2017-04-14T00:05:21.045Z,72.90
2017-04-14T00:06:20.830Z,72.80
2017-04-14T00:07:20.658Z,72.60
2017-04-14T00:08:21.210Z,73.30
2017-04-14T00:09:20.999Z,72.70
2017-04-14T00:10:20.782Z,72.70
2017-04-14T00:11:21.318Z,72.80
2017-04-14T00:12:21.101Z,72.50
2017-04-14T00:13:21.162Z,72.60
2017-04-14T00:14:20.934Z,72.60
2017-04-14T00:15:20.770Z,72.70
2017-04-14T00:16:20.541Z,72.60
2017-04-14T00:17:20.357Z,72.20
2017-04-14T00:18:20.317Z,72.30
2017-04-14T00:19:20.830Z,72.70
2017-04-14T00:20:21.353Z,73.50
2017-04-14T00:21:21.165Z,73.70
2017-04-14T00:22:21.758Z,73.90
2017-04-14T00:23:21.534Z,74.40
2017-04-14T00:24:21.890Z,74.90
2017-04-14T00:25:21.705Z,75.20
2017-04-14T00:26:22.318Z,75.10
2017-04-14T00:27:22.997Z,75.30
2017-04-14T00:28:22.790Z,75.10
2017-04-14T00:29:22.553Z,74.90
2017-04-14T00:30:23.677Z,75.10
2017-04-14T00:31:24.213Z,74.90
2017-04-14T00:32:24.038Z,75.80
2017-04-14T00:33:23.813Z,75.20
2017-04-14T00:34:23.625Z,75.40
2017-04-14T00:35:23.418Z,75.10
2017-04-14T00:36:23.222Z,75.10
2017-04-14T00:37:23.781Z,75.20
2017-04-14T00:38:23.599Z,75.20
2017-04-14T00:39:23.382Z,75.20
2017-04-14T00:40:23.161Z,75.10
2017-04-14T00:41:22.969Z,75.20
2017-04-14T00:42:22.745Z,75.40
2017-04-14T00:43:22.585Z,75.40
2017-04-14T00:44:22.493Z,75.50
2017-04-14T00:45:22.225Z,75.40
2017-04-14T00:46:22.057Z,75.40
2017-04-14T00:47:22.577Z,75.30
2017-04-14T00:48:22.410Z,75.30
2017-04-14T00:49:22.206Z,75.30
2017-04-14T00:50:21.965Z,75.20
2017-04-14T00:51:22.493Z,75.00
2017-04-14T00:52:22.295Z,75.10
2017-04-14T00:53:22.093Z,75.20
2017-04-14T00:54:21.873Z,75.20
2017-04-14T00:55:21.717Z,75.20
2017-04-14T00:56:21.517Z,75.00
2017-04-14T00:57:21.297Z,75.20
2017-04-14T00:58:21.886Z,75.00
2017-04-14T00:59:21.653Z,74.90
2017-04-14T01:00:21.469Z,74.90
2017-04-14T01:01:21.285Z,75.00
2017-04-14T01:02:21.041Z,75.00
2017-04-14T01:03:20.838Z,74.80
2017-04-14T01:04:20.657Z,74.60
2017-04-14T01:05:20.461Z,74.80
2017-04-14T01:06:20.285Z,74.90
2017-04-14T01:07:20.081Z,74.80
2017-04-14T01:09:19.962Z,74.30
2017-04-14T01:10:19.785Z,74.00
2017-04-14T01:11:19.592Z,74.30
2017-04-14T01:12:19.385Z,74.50
2017-04-14T01:13:19.146Z,74.40
2017-04-14T01:14:19.701Z,74.30
2017-04-14T01:15:19.501Z,74.20
2017-04-14T01:16:19.282Z,74.10
2017-04-14T01:17:19.061Z,73.90
2017-04-14T01:18:18.833Z,74.00
2017-04-14T01:19:18.992Z,73.80
2017-04-14T01:20:18.808Z,73.30
2017-04-14T01:21:18.581Z,73.10
2017-04-14T01:22:19.097Z,73.00
2017-04-14T01:23:19.672Z,72.80
2017-04-14T01:24:19.525Z,72.70
2017-04-14T01:25:20.036Z,73.10
2017-04-14T01:26:19.813Z,73.20
2017-04-14T01:27:19.573Z,73.10
2017-04-14T01:28:19.369Z,72.80
2017-04-14T01:29:19.233Z,72.80
2017-04-14T01:30:19.013Z,72.90
2017-04-14T01:31:18.801Z,72.80
2017-04-14T01:32:18.600Z,72.80
2017-04-14T01:33:18.418Z,73.00
2017-04-14T01:34:18.309Z,73.00
2017-04-14T01:35:18.848Z,72.90
2017-04-14T01:36:18.648Z,73.20
2017-04-14T01:37:18.472Z,72.90
2017-04-14T01:38:18.273Z,73.00
2017-04-14T01:39:18.805Z,72.70
2017-04-14T01:40:19.308Z,73.60
2017-04-14T01:41:19.304Z,73.10
2017-04-14T01:42:19.044Z,73.00
2017-04-14T01:43:18.825Z,73.30
2017-04-14T01:44:19.448Z,73.30
2017-04-14T01:45:19.976Z,73.40
2017-04-14T01:46:19.824Z,73.60
2017-04-14T01:47:19.608Z,73.60
2017-04-14T01:48:19.400Z,73.70
2017-04-14T01:49:19.236Z,73.70
2017-04-14T01:50:19.088Z,73.80
2017-04-14T01:51:19.612Z,73.80
2017-04-14T01:52:20.140Z,73.70
2017-04-14T01:53:19.920Z,73.70
2017-04-14T01:54:20.448Z,73.70
2017-04-14T01:55:20.240Z,73.60
2017-04-14T01:56:20.772Z,73.40
2017-04-14T01:57:20.544Z,73.10
2017-04-14T01:58:20.324Z,73.20
2017-04-14T01:59:20.121Z,73.10
2017-04-14T02:00:19.929Z,72.90
2017-04-14T02:01:19.731Z,73.40
2017-04-14T02:02:19.776Z,73.00
2017-04-14T02:03:20.340Z,73.10
2017-04-14T02:04:20.832Z,73.30
2017-04-14T02:05:20.640Z,73.60
2017-04-14T02:06:20.487Z,73.50
2017-04-14T02:07:20.268Z,74.10
2017-04-14T02:08:20.172Z,74.10
2017-04-14T02:09:19.940Z,73.90
2017-04-14T02:10:19.727Z,73.90
2017-04-14T02:11:19.547Z,74.40
2017-04-14T02:12:19.368Z,73.90
2017-04-14T02:13:19.159Z,73.80
2017-04-14T02:14:18.942Z,73.60
2017-04-14T02:15:18.780Z,73.80
2017-04-14T02:16:18.571Z,73.50
2017-04-14T02:17:18.399Z,73.30
2017-04-14T02:18:18.203Z,73.10
2017-04-14T02:19:17.999Z,73.60
2017-04-14T02:20:17.799Z,73.50
2017-04-14T02:21:17.599Z,73.90
2017-04-14T02:22:17.347Z,73.70
2017-04-14T02:23:17.943Z,73.40
2017-04-14T02:24:17.827Z,73.50
2017-04-14T02:25:17.647Z,73.40
2017-04-14T02:26:17.399Z,72.70
2017-04-14T02:27:17.179Z,72.80
2017-04-14T02:28:16.940Z,72.80
2017-04-14T02:29:16.723Z,73.10
2017-04-14T02:30:16.523Z,73.50
2017-04-14T02:31:16.333Z,73.60
2017-04-14T02:32:16.112Z,73.60
2017-04-14T02:33:15.847Z,73.50
2017-04-14T02:34:15.667Z,73.30
2017-04-14T02:35:15.451Z,72.90
2017-04-14T02:36:15.256Z,73.10
2017-04-14T02:37:15.079Z,73.20
2017-04-14T02:38:14.851Z,73.40
2017-04-14T02:39:14.639Z,73.40
2017-04-14T02:40:14.419Z,73.20
2017-04-14T02:41:14.179Z,73.80
2017-04-14T02:42:14.683Z,74.30
2017-04-14T02:43:14.463Z,74.00
2017-04-14T02:44:14.611Z,74.10
2017-04-14T02:45:15.163Z,74.20
2017-04-14T02:46:15.151Z,74.60
2017-04-14T02:47:14.967Z,74.80
2017-04-14T02:48:14.795Z,74.90
2017-04-14T02:49:15.163Z,74.90
2017-04-14T02:50:14.915Z,75.00
2017-04-14T02:51:14.703Z,75.30
2017-04-14T02:52:14.975Z,75.40
2017-04-14T02:53:15.527Z,75.90
2017-04-14T02:54:15.311Z,76.10
2017-04-14T02:55:15.810Z,76.20
2017-04-14T02:56:16.363Z,76.40
2017-04-14T02:57:16.159Z,76.10
2017-04-14T02:58:15.955Z,75.80
2017-04-14T02:59:16.471Z,75.60
2017-04-14T03:00:16.246Z,75.40
2017-04-14T03:01:16.803Z,75.70
2017-04-14T03:02:16.555Z,75.40
2017-04-14T03:03:16.318Z,74.40
2017-04-14T03:04:16.075Z,74.30
2017-04-14T03:05:16.642Z,74.30
2017-04-14T03:06:16.430Z,73.80
2017-04-14T03:07:16.219Z,73.50
2017-04-14T03:08:16.035Z,73.50
2017-04-14T03:09:15.799Z,73.30
2017-04-14T03:10:16.319Z,72.70
2017-04-14T03:11:16.119Z,73.00
2017-04-14T03:12:15.977Z,72.20
2017-04-14T03:13:15.736Z,72.00
2017-04-14T03:14:15.531Z,71.60
2017-04-14T03:15:16.031Z,71.30
2017-04-14T03:16:16.563Z,71.20
2017-04-14T03:17:17.420Z,71.10
2017-04-14T03:18:17.191Z,70.90
2017-04-14T03:19:17.707Z,70.80
2017-04-14T03:20:18.243Z,70.80
2017-04-14T03:21:17.243Z,70.80
2017-04-14T03:22:17.047Z,71.20
2017-04-14T03:23:16.823Z,70.80
2017-04-14T03:24:16.620Z,71.00
2017-04-14T03:25:17.151Z,71.50
2017-04-14T03:26:16.923Z,71.90
2017-04-14T03:27:16.711Z,72.20
2017-04-14T03:28:16.446Z,72.30
2017-04-14T03:29:16.956Z,72.60
2017-04-14T03:30:17.547Z,73.50
2017-04-14T03:31:17.291Z,73.20
2017-04-14T03:32:17.074Z,72.80
2017-04-14T03:33:17.591Z,73.60
2017-04-14T03:34:18.099Z,74.00
2017-04-14T03:35:18.689Z,73.80
2017-04-14T03:36:18.475Z,73.00
2017-04-14T03:37:18.263Z,73.00
2017-04-14T03:38:18.103Z,73.20
2017-04-14T03:39:17.906Z,73.30
2017-04-14T03:40:17.691Z,73.30
2017-04-14T03:41:17.474Z,73.30
2017-04-14T03:42:17.259Z,73.80
2017-04-14T03:43:17.051Z,72.80
2017-04-14T03:44:17.559Z,72.70
2017-04-14T03:45:18.130Z,72.70
2017-04-14T03:46:17.887Z,72.60
2017-04-14T03:47:18.430Z,72.10
2017-04-14T03:48:18.459Z,72.70
2017-04-14T03:49:18.266Z,73.10
2017-04-14T03:50:18.355Z,73.50
2017-04-14T03:51:18.115Z,73.20
2017-04-14T03:52:18.638Z,73.10
2017-04-14T03:53:19.179Z,72.80
2017-04-14T03:54:19.024Z,73.00
2017-04-14T03:55:18.815Z,73.70
2017-04-14T03:56:18.558Z,72.80
2017-04-14T03:57:19.063Z,72.50
2017-04-14T03:58:18.891Z,72.60
2017-04-14T03:59:18.615Z,72.60
2017-04-14T04:00:18.395Z,72.50
2017-04-14T04:01:18.155Z,71.60
2017-04-14T04:02:17.947Z,72.50
2017-04-14T04:03:17.770Z,72.50
2017-04-14T04:04:17.619Z,72.30
2017-04-14T04:05:18.155Z,72.80
2017-04-14T04:06:17.890Z,72.60
2017-04-14T04:07:17.711Z,72.40
2017-04-14T04:08:17.467Z,72.60
2017-04-14T04:09:17.246Z,72.60
2017-04-14T04:10:17.022Z,72.30
2017-04-14T04:11:16.807Z,72.40
2017-04-14T04:12:16.566Z,72.50
2017-04-14T04:13:16.754Z,72.50
2017-04-14T04:14:16.602Z,72.50
2017-04-14T04:15:16.402Z,72.30
2017-04-14T04:16:16.354Z,72.00
2017-04-14T04:17:17.267Z,72.00
2017-04-14T04:18:17.023Z,72.10
2017-04-14T04:19:17.234Z,72.10
2017-04-14T04:20:17.018Z,72.00
2017-04-14T04:21:16.806Z,71.70
2017-04-14T04:22:16.562Z,71.50
2017-04-14T04:23:16.347Z,71.70
2017-04-14T04:24:16.162Z,71.80
2017-04-14T04:25:15.954Z,71.90
2017-04-14T04:26:15.718Z,71.80
2017-04-14T04:27:15.482Z,71.90
2017-04-14T04:28:16.406Z,72.00
2017-04-14T04:29:16.238Z,72.50
2017-04-14T04:30:16.062Z,72.40
2017-04-14T04:31:17.618Z,72.20
2017-04-14T04:32:23.006Z,71.90
2017-04-14T04:33:28.346Z,72.30
2017-04-14T04:34:28.123Z,72.40
2017-04-14T04:35:28.740Z,73.40
2017-04-14T04:36:28.502Z,72.60
2017-04-14T04:37:28.302Z,73.20
2017-04-14T04:38:28.082Z,73.90
2017-04-14T04:39:28.430Z,74.30
2017-04-14T04:40:28.230Z,74.30
2017-04-14T04:41:28.002Z,74.50
2017-04-14T04:42:27.766Z,74.40
2017-04-14T04:43:28.339Z,74.50
2017-04-14T04:44:28.147Z,74.70
2017-04-14T04:45:27.931Z,74.90
2017-04-14T04:46:27.718Z,75.10
2017-04-14T04:47:27.490Z,75.70
2017-04-14T04:48:28.414Z,75.50
2017-04-14T04:49:28.419Z,75.80
2017-04-14T04:50:28.954Z,75.70
2017-04-14T04:51:28.978Z,75.10
2017-04-14T04:52:28.746Z,74.90
2017-04-14T04:53:29.282Z,74.60
2017-04-14T04:54:29.046Z,74.30
2017-04-14T04:55:29.066Z,74.00
2017-04-14T04:56:28.838Z,73.80
2017-04-14T04:57:28.614Z,74.10
2017-04-14T04:58:28.386Z,74.50
2017-04-14T04:59:28.907Z,74.40
2017-04-14T05:00:29.430Z,74.00
2017-04-14T05:01:29.938Z,73.70
2017-04-14T05:02:29.719Z,73.70
2017-04-14T05:03:29.517Z,74.10
2017-04-14T05:04:30.046Z,74.20
2017-04-14T05:05:29.862Z,73.60
2017-04-14T05:06:30.362Z,73.50
2017-04-14T05:07:30.218Z,73.20
2017-04-14T05:08:30.029Z,73.50
2017-04-14T05:09:29.858Z,73.00
2017-04-14T05:10:29.642Z,73.10
2017-04-14T05:11:29.450Z,73.40
2017-04-14T05:12:29.210Z,73.50
2017-04-14T05:13:28.991Z,74.20
2017-04-14T05:14:29.618Z,73.80
2017-04-14T05:15:30.246Z,73.50
2017-04-14T05:16:30.762Z,73.60
2017-04-14T05:17:31.242Z,73.30
2017-04-14T05:18:31.050Z,73.50
2017-04-14T05:19:30.869Z,73.60
2017-04-14T05:20:31.378Z,73.50
2017-04-14T05:21:31.190Z,73.30
2017-04-14T05:22:30.962Z,73.20
2017-04-14T05:23:31.695Z,72.90
2017-04-14T05:24:31.475Z,72.70
2017-04-14T05:25:31.386Z,72.70
2017-04-14T05:26:31.274Z,72.40
2017-04-14T05:27:31.266Z,72.20
2017-04-14T05:28:31.115Z,72.10
2017-04-14T05:29:31.994Z,72.10
2017-04-14T05:30:31.873Z,72.10
2017-04-14T05:31:32.550Z,71.90
2017-04-14T05:32:33.108Z,72.00
2017-04-14T05:33:32.886Z,71.80
2017-04-14T05:34:32.964Z,71.50
2017-04-14T05:35:32.794Z,71.50
2017-04-14T05:36:32.573Z,72.00
2017-04-14T05:37:32.353Z,72.00
2017-04-14T05:38:32.146Z,72.30
2017-04-14T05:39:31.998Z,72.20
2017-04-14T05:40:31.909Z,73.00
2017-04-14T05:41:31.790Z,73.90
2017-04-14T05:42:31.526Z,74.70
2017-04-14T05:43:32.054Z,75.20
2017-04-14T05:44:31.847Z,75.80
2017-04-14T05:45:31.650Z,76.30
2017-04-14T05:46:31.438Z,76.10
2017-04-14T05:47:31.249Z,75.80
2017-04-14T05:48:31.031Z,76.00
2017-04-14T05:49:30.922Z,76.00
2017-04-14T05:50:30.778Z,76.00
2017-04-14T05:51:30.558Z,76.00
2017-04-14T05:52:30.778Z,76.20
2017-04-14T05:53:32.194Z,76.60
2017-04-14T05:54:31.949Z,76.50
2017-04-14T05:55:32.174Z,76.60
2017-04-14T05:56:32.010Z,76.70
2017-04-14T05:57:31.764Z,75.90
2017-04-14T05:58:31.529Z,75.50
2017-04-14T05:59:31.330Z,75.40
2017-04-14T06:00:31.181Z,75.30
2017-04-14T06:01:30.974Z,75.50
2017-04-14T06:02:30.846Z,75.00
2017-04-14T06:03:31.834Z,75.30
2017-04-14T06:04:31.614Z,75.60
2017-04-14T06:05:31.434Z,74.80
2017-04-14T06:06:31.333Z,74.40
2017-04-14T06:07:31.105Z,73.90
2017-04-14T06:08:30.918Z,74.00
2017-04-14T06:09:30.821Z,72.60
2017-04-14T06:10:30.598Z,72.30
2017-04-14T06:11:31.133Z,72.60
2017-04-14T06:12:30.987Z,71.90
2017-04-14T06:13:30.875Z,72.10
2017-04-14T06:14:30.769Z,71.70
2017-04-14T06:15:30.537Z,71.20
2017-04-14T06:16:30.338Z,70.90
2017-04-14T06:17:30.130Z,70.90
2017-04-14T06:18:30.681Z,71.00
2017-04-14T06:19:30.591Z,70.50
2017-04-14T06:20:30.438Z,70.00
2017-04-14T06:21:30.322Z,70.10
2017-04-14T06:22:30.153Z,70.40
2017-04-14T06:23:30.730Z,70.70
2017-04-14T06:24:30.521Z,70.10
2017-04-14T06:25:30.506Z,70.60
2017-04-14T06:26:30.313Z,69.10
2017-04-14T06:27:30.093Z,69.80
2017-04-14T06:28:29.945Z,69.60
2017-04-14T06:29:29.773Z,68.80
2017-04-14T06:30:29.625Z,67.50
2017-04-14T06:31:29.433Z,67.40
2017-04-14T06:32:29.430Z,68.20
2017-04-14T06:33:29.202Z,67.90
2017-04-14T06:34:29.745Z,66.90
2017-04-14T06:35:30.910Z,66.10
2017-04-14T06:36:31.277Z,66.20
2017-04-14T06:37:31.829Z,66.20
2017-04-14T06:38:31.774Z,66.00
2017-04-14T06:39:31.549Z,65.50
2017-04-14T06:40:31.349Z,66.20
2017-04-14T06:41:31.183Z,65.20
2017-04-14T06:42:30.993Z,64.50
2017-04-14T06:43:30.813Z,63.60
2017-04-14T06:44:31.326Z,63.80
2017-04-14T06:45:31.870Z,63.70
2017-04-14T06:46:31.633Z,63.10
2017-04-14T06:47:31.417Z,63.70
2017-04-14T06:48:31.212Z,63.40
2017-04-14T06:49:31.001Z,64.50
2017-04-14T06:50:30.761Z,63.80
2017-04-14T06:51:30.589Z,64.10
2017-04-14T06:52:30.425Z,63.10
2017-04-14T06:53:30.207Z,62.80
2017-04-14T06:54:36.449Z,62.40
2017-04-14T06:55:36.221Z,61.90
2017-04-14T06:56:36.041Z,61.00
2017-04-14T06:57:35.829Z,59.60
2017-04-14T06:58:35.704Z,59.30
2017-04-14T06:59:35.481Z,59.00
2017-04-14T07:00:35.281Z,59.10
2017-04-14T07:01:35.145Z,59.50
2017-04-14T07:02:35.001Z,58.90
2017-04-14T07:03:34.777Z,58.00
2017-04-14T07:04:34.581Z,57.50
2017-04-14T07:05:34.381Z,57.10
2017-04-14T07:06:34.188Z,56.80
2017-04-14T07:07:33.944Z,57.30
2017-04-14T07:08:33.712Z,57.00
2017-04-14T07:09:33.509Z,56.90
2017-04-14T07:10:33.276Z,57.30
2017-04-14T07:11:33.041Z,57.20
2017-04-14T07:12:32.793Z,57.10
2017-04-14T07:13:32.569Z,57.00
2017-04-14T07:14:32.541Z,56.90
2017-04-14T07:15:33.064Z,57.30
2017-04-14T07:16:33.583Z,57.10
2017-04-14T07:17:33.564Z,56.60
2017-04-14T07:18:33.321Z,56.20
2017-04-14T07:19:33.138Z,56.70
2017-04-14T07:20:32.876Z,57.10
2017-04-14T07:21:33.441Z,56.30
2017-04-14T07:22:33.456Z,55.90
2017-04-14T07:23:33.576Z,55.70
2017-04-14T07:24:33.332Z,55.20
2017-04-14T07:25:33.864Z,55.10
2017-04-14T07:26:33.659Z,54.90
2017-04-14T07:27:33.460Z,54.50
2017-04-14T07:28:33.237Z,52.70
2017-04-14T07:29:32.997Z,52.70
2017-04-14T07:30:32.776Z,53.40
2017-04-14T07:31:32.556Z,53.20
2017-04-14T07:32:32.332Z,52.10
2017-04-14T07:33:32.101Z,51.30
2017-04-14T07:34:32.084Z,51.10
2017-04-14T07:35:31.824Z,51.10
2017-04-14T07:36:31.612Z,50.90
2017-04-14T07:37:31.740Z,51.20
2017-04-14T07:38:31.532Z,51.30
2017-04-14T07:39:31.312Z,50.90
2017-04-14T07:40:31.088Z,50.90
2017-04-14T07:41:30.852Z,49.90
2017-04-14T07:42:30.636Z,49.80
2017-04-14T07:43:30.428Z,49.80
2017-04-14T07:44:30.212Z,50.00
2017-04-14T07:45:30.036Z,49.60
2017-04-14T07:46:29.764Z,50.10
2017-04-14T07:47:29.544Z,50.70
2017-04-14T07:48:29.340Z,50.30
2017-04-14T07:49:29.152Z,49.50
2017-04-14T07:50:28.925Z,49.50
2017-04-14T07:51:28.707Z,49.50
2017-04-14T07:52:28.476Z,49.60
2017-04-14T07:53:28.244Z,49.20
2017-04-14T07:54:28.007Z,48.90
2017-04-14T07:55:27.792Z,48.60
2017-04-14T07:56:28.280Z,48.00
2017-04-14T07:57:28.080Z,47.80
2017-04-14T07:58:27.864Z,47.50
2017-04-14T07:59:27.712Z,47.00
2017-04-14T08:00:28.224Z,46.90
2017-04-14T08:01:28.015Z,46.80
2017-04-14T08:02:28.956Z,45.60
2017-04-14T08:03:29.483Z,45.00
2017-04-14T08:04:29.259Z,45.60
2017-04-14T08:05:29.044Z,46.20
2017-04-14T08:06:28.835Z,46.00
2017-04-14T08:07:28.596Z,45.90
2017-04-14T08:08:28.368Z,46.00
2017-04-14T08:09:28.180Z,45.20
2017-04-14T08:10:30.512Z,44.50
2017-04-14T08:11:30.352Z,43.10
2017-04-14T08:12:30.864Z,42.90
2017-04-14T08:13:31.392Z,43.40
2017-04-14T08:14:31.292Z,45.00
2017-04-14T08:15:31.867Z,43.50
2017-04-14T08:16:31.649Z,43.60
2017-04-14T08:17:31.534Z,42.90
2017-04-14T08:18:31.352Z,41.60
2017-04-14T08:19:31.280Z,40.70
2017-04-14T08:20:31.060Z,40.50
2017-04-14T08:21:30.848Z,39.80
2017-04-14T08:22:30.596Z,40.40
2017-04-14T08:23:30.384Z,40.00
2017-04-14T08:24:30.232Z,39.60
2017-04-14T08:25:30.799Z,40.50
2017-04-14T08:26:30.615Z,39.20
2017-04-14T08:27:30.372Z,38.90
2017-04-14T08:28:30.180Z,39.40
2017-04-14T08:29:30.000Z,40.90
2017-04-14T08:30:29.811Z,40.60
2017-04-14T08:31:29.584Z,41.10
2017-04-14T08:32:29.371Z,40.80
2017-04-14T08:33:29.147Z,39.70
2017-04-14T08:34:28.924Z,40.10
2017-04-14T08:35:28.972Z,40.30
2017-04-14T08:36:28.759Z,40.40
2017-04-14T08:37:28.527Z,40.20
2017-04-14T08:38:28.592Z,40.10
2017-04-14T08:39:28.700Z,40.00
2017-04-14T08:40:28.503Z,39.70
2017-04-14T08:41:28.291Z,39.90
2017-04-14T08:42:28.843Z,39.20
2017-04-14T08:43:28.621Z,39.60
2017-04-14T08:44:29.147Z,39.00
2017-04-14T08:45:28.952Z,38.50
2017-04-14T08:46:28.803Z,38.00
2017-04-14T08:47:28.579Z,37.20
2017-04-14T08:48:28.351Z,37.80
2017-04-14T08:49:28.131Z,38.20
2017-04-14T08:50:27.931Z,37.90
2017-04-14T08:51:27.931Z,37.80
2017-04-14T08:52:27.844Z,38.40
2017-04-14T08:53:27.647Z,38.40
2017-04-14T08:54:27.424Z,37.50
2017-04-14T08:55:27.199Z,38.10
2017-04-14T08:56:26.963Z,38.10
2017-04-14T08:57:26.763Z,38.60
2017-04-14T08:58:27.284Z,38.00
2017-04-14T08:59:27.803Z,37.50
2017-04-14T09:00:28.343Z,37.40
2017-04-14T09:01:28.141Z,38.50
2017-04-14T09:02:27.948Z,38.40
2017-04-14T09:03:27.727Z,38.00
2017-04-14T09:04:28.243Z,37.90
2017-04-14T09:05:28.755Z,37.30
2017-04-14T09:06:29.367Z,36.50
2017-04-14T09:07:29.142Z,36.20
2017-04-14T09:08:28.927Z,35.30
2017-04-14T09:09:28.727Z,35.30
2017-04-14T09:10:28.743Z,36.20
2017-04-14T09:11:28.544Z,36.10
2017-04-14T09:12:28.315Z,36.20
2017-04-14T09:13:28.110Z,36.50
2017-04-14T09:14:27.901Z,36.60
2017-04-14T09:15:29.058Z,36.40
2017-04-14T09:16:29.000Z,35.30
2017-04-14T09:17:28.762Z,35.80
2017-04-14T09:18:36.696Z,36.10
2017-04-14T09:19:36.671Z,35.20
2017-04-14T09:20:36.446Z,35.60
2017-04-14T09:21:37.098Z,35.90
2017-04-14T09:22:36.931Z,36.00
2017-04-14T09:23:36.751Z,35.30
2017-04-14T09:24:37.255Z,36.10
2017-04-14T09:25:37.059Z,36.10
2017-04-14T09:27:36.850Z,35.70
2017-04-14T09:28:36.643Z,36.10
2017-04-14T09:29:36.411Z,36.50
2017-04-14T09:30:36.179Z,36.40
2017-04-14T09:31:35.946Z,36.20
2017-04-14T09:32:35.723Z,36.10
2017-04-14T09:33:35.519Z,35.90
2017-04-14T09:34:35.530Z,35.30
2017-04-14T09:35:35.288Z,34.70
2017-04-14T09:36:35.058Z,34.50
2017-04-14T09:37:34.911Z,34.10
2017-04-14T09:38:35.487Z,33.90
2017-04-14T09:39:35.251Z,33.80
2017-04-14T09:40:35.010Z,33.90
2017-04-14T09:41:34.782Z,33.60
2017-04-14T09:42:34.567Z,34.00
2017-04-14T09:43:34.412Z,34.70
2017-04-14T09:44:35.182Z,34.30
2017-04-14T09:45:34.998Z,34.50
2017-04-14T09:46:35.570Z,34.50
2017-04-14T09:48:41.870Z,34.80
2017-04-14T09:49:41.658Z,35.10
2017-04-14T09:50:41.426Z,35.50
2017-04-14T09:51:41.198Z,35.40
2017-04-14T09:52:40.942Z,35.80
2017-04-14T09:53:41.463Z,36.00
2017-04-14T09:54:42.311Z,36.00
2017-04-14T09:55:42.079Z,35.60
2017-04-14T09:56:41.882Z,35.60
2017-04-14T09:57:41.679Z,35.00
2017-04-14T09:59:42.258Z,35.40
2017-04-14T10:00:42.058Z,35.90
2017-04-14T10:01:41.842Z,36.70
2017-04-14T10:02:41.611Z,37.10
2017-04-14T10:03:41.391Z,36.90
2017-04-14T10:04:41.191Z,35.90
2017-04-14T10:05:41.014Z,34.80
2017-04-14T10:06:41.038Z,35.50
2017-04-14T10:07:41.060Z,35.40
2017-04-14T10:09:42.742Z,35.40
2017-04-14T10:10:42.586Z,34.80
2017-04-14T10:11:42.358Z,34.30
2017-04-14T10:12:42.115Z,34.20
2017-04-14T10:13:42.066Z,34.30
2017-04-14T10:14:41.846Z,34.30
2017-04-14T10:15:41.683Z,34.80
2017-04-14T10:16:42.694Z,34.10
2017-04-14T10:17:42.699Z,34.20
2017-04-14T10:18:42.658Z,33.10
2017-04-14T10:19:43.187Z,32.40
2017-04-14T10:20:42.974Z,32.90
2017-04-14T10:21:43.490Z,32.50
2017-04-14T10:22:43.986Z,32.80
2017-04-14T10:23:43.762Z,33.10
2017-04-14T10:24:43.562Z,32.70
2017-04-14T10:25:43.382Z,33.20
2017-04-14T10:26:43.166Z,33.60
2017-04-14T10:27:42.973Z,34.20
2017-04-14T10:28:42.796Z,34.30
2017-04-14T10:29:42.534Z,34.80
2017-04-14T10:30:43.194Z,34.70
2017-04-14T10:31:42.930Z,35.30
2017-04-14T10:32:42.694Z,35.60
2017-04-14T10:33:42.474Z,35.90
2017-04-14T10:34:42.250Z,36.00
2017-04-14T10:35:43.638Z,36.50
2017-04-14T10:36:43.435Z,36.00
2017-04-14T10:37:43.322Z,35.90
2017-04-14T10:38:43.105Z,36.40
2017-04-14T10:39:42.894Z,36.50
2017-04-14T10:40:42.666Z,35.80
2017-04-14T10:41:42.418Z,35.60
2017-04-14T10:42:42.215Z,35.10
2017-04-14T10:43:42.003Z,35.50
2017-04-14T10:44:42.493Z,35.30
2017-04-14T10:45:42.306Z,36.10
2017-04-14T10:46:42.122Z,36.00
2017-04-14T10:47:42.414Z,34.90
2017-04-14T10:48:42.194Z,34.50
2017-04-14T10:49:41.970Z,34.70
2017-04-14T10:50:41.741Z,35.10
2017-04-14T10:51:41.526Z,35.60
2017-04-14T10:52:41.290Z,34.90
2017-04-14T10:53:41.090Z,34.20
2017-04-14T10:54:40.846Z,35.00
2017-04-14T10:55:40.609Z,33.90
2017-04-14T10:56:40.383Z,34.60
2017-04-14T10:57:40.194Z,34.10
2017-04-14T10:58:40.462Z,33.50
2017-04-14T10:59:40.262Z,33.80
2017-04-14T11:00:40.793Z,34.50
2017-04-14T11:01:40.678Z,34.30
2017-04-14T11:02:40.558Z,34.50
2017-04-14T11:03:40.306Z,35.10
2017-04-14T11:04:40.094Z,35.40
2017-04-14T11:05:39.877Z,33.70
2017-04-14T11:06:41.970Z,33.60
2017-04-14T11:07:41.746Z,34.10
2017-04-14T11:08:42.270Z,34.80
2017-04-14T11:09:42.037Z,33.90
2017-04-14T11:11:41.998Z,34.10
2017-04-14T11:12:41.817Z,33.30
2017-04-14T11:13:41.566Z,32.30
2017-04-14T11:14:41.377Z,31.50
2017-04-14T11:15:41.910Z,31.80
2017-04-14T11:16:41.689Z,31.80
2017-04-14T11:17:41.470Z,31.70
2017-04-14T11:18:41.370Z,31.80
2017-04-14T11:19:41.117Z,31.40
2017-04-14T11:20:40.885Z,32.30
2017-04-14T11:21:40.677Z,33.30
2017-04-14T11:22:40.466Z,33.60
2017-04-14T11:23:40.239Z,34.40
2017-04-14T11:24:39.993Z,34.60
2017-04-14T11:25:39.797Z,34.60
2017-04-14T11:26:40.315Z,35.30
2017-04-14T11:27:40.074Z,34.80
2017-04-14T11:28:39.853Z,35.20
2017-04-14T11:29:39.937Z,35.00
2017-04-14T11:30:40.457Z,33.60
2017-04-14T11:31:40.966Z,34.30
2017-04-14T11:33:41.509Z,34.90
2017-04-14T11:34:41.287Z,34.20
2017-04-14T11:35:41.081Z,34.40
2017-04-14T11:36:41.253Z,34.40
2017-04-14T11:37:41.038Z,34.20
2017-04-14T11:38:40.827Z,34.40
2017-04-14T11:39:40.612Z,34.40
2017-04-14T11:40:40.361Z,34.40
2017-04-14T11:41:40.154Z,34.40
2017-04-14T11:42:39.974Z,34.50
2017-04-14T11:43:39.790Z,34.00
2017-04-14T11:44:39.581Z,34.10
2017-04-14T11:45:39.349Z,33.70
2017-04-14T11:46:39.115Z,33.20
2017-04-14T11:47:38.950Z,33.00
2017-04-14T11:48:38.717Z,33.30
2017-04-14T11:49:38.517Z,33.40
2017-04-14T11:50:38.301Z,33.60
2017-04-14T11:51:38.089Z,34.00
2017-04-14T11:52:37.866Z,34.20
2017-04-14T11:53:38.409Z,33.90
2017-04-14T11:54:38.184Z,34.10
2017-04-14T11:55:38.018Z,34.70
2017-04-14T11:56:37.818Z,34.90
2017-04-14T11:57:37.617Z,35.40
2017-04-14T11:58:37.405Z,35.80
2017-04-14T11:59:37.217Z,35.70
2017-04-14T12:00:37.569Z,35.00
2017-04-14T12:01:38.073Z,35.20
2017-04-14T12:02:37.917Z,35.10
2017-04-14T12:03:37.717Z,35.10
2017-04-14T12:04:37.505Z,35.20
2017-04-14T12:05:37.341Z,35.10
2017-04-14T12:06:37.125Z,35.20
2017-04-14T12:07:36.889Z,34.60
2017-04-14T12:08:36.677Z,34.90
2017-04-14T12:09:36.506Z,34.70
2017-04-14T12:10:37.145Z,35.50
2017-04-14T12:11:37.665Z,35.10
2017-04-14T12:12:38.180Z,35.70
2017-04-14T12:13:37.979Z,35.40
2017-04-14T12:14:37.789Z,35.20
2017-04-14T12:15:37.613Z,35.00
2017-04-14T12:16:37.453Z,34.40
2017-04-14T12:17:37.249Z,33.70
2017-04-14T12:18:37.041Z,33.90
2017-04-14T12:19:37.268Z,33.70
2017-04-14T12:20:43.464Z,33.60
2017-04-14T12:21:43.244Z,33.40
2017-04-14T12:22:43.780Z,33.70
2017-04-14T12:23:43.561Z,33.70
2017-04-14T12:24:44.104Z,33.40
2017-04-14T12:25:43.893Z,32.80
2017-04-14T12:26:44.493Z,33.30
2017-04-14T12:27:44.341Z,32.10
2017-04-14T12:28:44.161Z,31.60
2017-04-14T12:29:43.940Z,31.50
2017-04-14T12:30:43.725Z,32.00
2017-04-14T12:31:44.261Z,32.20
2017-04-14T12:32:44.061Z,31.70
2017-04-14T12:33:43.844Z,32.00
2017-04-14T12:34:44.297Z,32.10
2017-04-14T12:35:45.113Z,32.30
2017-04-14T12:36:44.932Z,32.60
2017-04-14T12:37:44.708Z,32.20
2017-04-14T12:38:44.512Z,31.40
2017-04-14T12:39:44.285Z,31.30
2017-04-14T12:40:44.076Z,31.70
2017-04-14T12:41:43.868Z,31.50
2017-04-14T12:42:43.765Z,31.50
2017-04-14T12:43:43.568Z,32.10
2017-04-14T12:44:43.456Z,32.10
2017-04-14T12:45:43.289Z,32.30
2017-04-14T12:46:43.085Z,32.50
2017-04-14T12:47:43.612Z,31.90
2017-04-14T12:48:43.417Z,31.70
2017-04-14T12:49:43.189Z,32.10
2017-04-14T12:50:42.992Z,32.20
2017-04-14T12:51:42.852Z,31.30
2017-04-14T12:52:42.729Z,31.40
2017-04-14T12:53:42.532Z,31.50
2017-04-14T12:54:43.109Z,32.00
2017-04-14T12:55:42.896Z,32.20
2017-04-14T12:56:42.717Z,31.50
2017-04-14T12:57:42.488Z,31.60
2017-04-14T12:58:42.240Z,31.20
2017-04-14T12:59:42.216Z,30.80